createdAt,value
2019-06-07T00:01:11.353Z,14.77
2019-06-07T00:03:40.311Z,14.74
2019-06-07T00:06:13.151Z,14.72
2019-06-07T00:08:40.090Z,14.69
2019-06-07T00:11:11.078Z,14.68
2019-06-07T00:13:39.637Z,14.67
2019-06-07T00:16:11.907Z,14.66
2019-06-07T00:18:40.573Z,14.65
2019-06-07T00:21:10.019Z,14.62
2019-06-07T00:23:38.950Z,14.58
2019-06-07T00:26:08.423Z,14.58
2019-06-07T00:28:37.806Z,14.55
2019-06-07T00:31:06.853Z,14.52
2019-06-07T00:33:36.086Z,14.51
2019-06-07T00:36:05.459Z,14.47
2019-06-07T00:38:34.342Z,14.44
2019-06-07T00:41:03.599Z,14.41
2019-06-07T00:43:32.428Z,14.39
2019-06-07T00:46:01.345Z,14.36
2019-06-07T00:48:32.949Z,14.28
2019-06-07T00:51:00.842Z,14.21
2019-06-07T00:53:32.423Z,14.12
2019-06-07T00:56:00.340Z,14.06
2019-06-07T00:58:29.634Z,14.00
2019-06-07T01:00:58.737Z,13.95
2019-06-07T01:03:27.731Z,13.90
2019-06-07T01:05:56.786Z,13.81
2019-06-07T01:08:29.887Z,13.76
2019-06-07T01:10:56.303Z,13.66
2019-06-07T01:13:26.925Z,13.64
2019-06-07T01:15:56.102Z,13.60
2019-06-07T01:18:37.259Z,13.56
2019-06-07T01:20:56.084Z,13.51
2019-06-07T01:23:59.724Z,13.46
2019-06-07T01:25:55.824Z,13.40
2019-06-07T01:28:41.232Z,13.36
2019-06-07T01:31:10.303Z,13.32
2019-06-07T01:33:50.972Z,13.27
2019-06-07T01:36:10.171Z,13.23
2019-06-07T01:38:39.227Z,13.21
2019-06-07T01:41:08.159Z,13.17
2019-06-07T01:43:37.116Z,13.12
2019-06-07T01:46:06.237Z,13.08
2019-06-07T01:48:49.172Z,13.06
2019-06-07T01:51:05.770Z,12.98
2019-06-07T01:53:34.780Z,13.00
2019-06-07T01:56:03.712Z,12.99
2019-06-07T01:58:32.616Z,12.97
2019-06-07T02:01:01.680Z,12.95
2019-06-07T02:03:33.095Z,12.94
2019-06-07T02:06:10.700Z,12.91
2019-06-07T02:08:39.770Z,12.84
2019-06-07T02:11:09.289Z,12.80
2019-06-07T02:13:38.379Z,12.78
2019-06-07T02:16:07.380Z,12.75
2019-06-07T02:18:36.391Z,12.72
2019-06-07T02:21:07.489Z,12.69
2019-06-07T02:23:36.417Z,12.67
2019-06-07T02:26:05.356Z,12.64
2019-06-07T02:28:45.053Z,12.63
2019-06-07T02:31:13.082Z,12.61
2019-06-07T02:33:42.039Z,12.59
2019-06-07T02:36:10.957Z,12.55
2019-06-07T02:38:39.998Z,12.52
2019-06-07T02:41:09.202Z,12.49
2019-06-07T02:43:38.270Z,12.46
2019-06-07T02:46:28.063Z,12.44
2019-06-07T02:48:44.252Z,12.41
2019-06-07T02:51:13.263Z,12.40
2019-06-07T02:53:42.202Z,12.38
2019-06-07T02:56:37.578Z,12.36
2019-06-07T02:58:42.305Z,12.36
2019-06-07T03:01:11.780Z,12.32
2019-06-07T03:03:40.886Z,12.31
2019-06-07T03:06:10.787Z,12.30
2019-06-07T03:08:41.462Z,12.28
2019-06-07T03:11:10.803Z,12.27
2019-06-07T03:13:40.987Z,12.26
2019-06-07T03:16:12.096Z,12.26
2019-06-07T03:19:03.728Z,12.23
2019-06-07T03:21:36.653Z,12.22
2019-06-07T03:24:05.857Z,12.23
2019-06-07T03:27:11.364Z,12.23
2019-06-07T03:29:05.809Z,12.25
2019-06-07T03:31:41.490Z,12.26
2019-06-07T03:34:05.615Z,12.27
2019-06-07T03:36:38.720Z,12.27
2019-06-07T03:39:07.093Z,12.28
2019-06-07T03:41:43.811Z,12.28
2019-06-07T03:44:06.814Z,12.29
2019-06-07T03:46:38.975Z,12.29
2019-06-07T03:49:06.535Z,12.29
2019-06-07T03:51:39.280Z,12.30
2019-06-07T03:54:06.390Z,12.32
2019-06-07T03:56:40.970Z,12.33
2019-06-07T03:59:08.712Z,12.35
2019-06-07T04:01:43.645Z,12.39
2019-06-07T04:04:12.543Z,12.42
2019-06-07T04:06:42.478Z,12.45
2019-06-07T04:09:11.940Z,12.49
2019-06-07T04:11:41.013Z,12.52
2019-06-07T04:14:10.079Z,12.54
2019-06-07T04:16:44.600Z,12.55
2019-06-07T04:19:11.656Z,12.55
2019-06-07T04:21:42.814Z,12.56
2019-06-07T04:24:11.391Z,12.56
2019-06-07T04:26:46.546Z,12.58
2019-06-07T04:31:47.775Z,12.60
2019-06-07T04:34:17.506Z,12.62
2019-06-07T04:36:58.442Z,12.64
2019-06-07T04:39:18.325Z,12.64
2019-06-07T04:41:48.114Z,12.67
2019-06-07T04:44:20.084Z,12.68
2019-06-07T04:46:51.100Z,12.70
2019-06-07T04:49:21.361Z,12.72
2019-06-07T04:51:51.485Z,12.74
2019-06-07T04:54:20.503Z,12.77
2019-06-07T04:56:49.406Z,12.79
2019-06-07T05:00:01.043Z,12.83
2019-06-07T05:01:59.533Z,12.87
2019-06-07T05:04:31.281Z,12.92
2019-06-07T05:06:59.342Z,12.97
2019-06-07T05:09:29.982Z,13.00
2019-06-07T05:11:59.093Z,13.04
2019-06-07T05:14:56.958Z,13.07
2019-06-07T05:17:33.235Z,13.09
2019-06-07T05:20:02.511Z,13.13
2019-06-07T05:22:34.048Z,13.16
2019-06-07T05:25:02.047Z,13.22
2019-06-07T05:27:33.649Z,13.26
2019-06-07T05:30:36.121Z,13.33
2019-06-07T05:32:34.311Z,13.41
2019-06-07T05:35:03.416Z,13.51
2019-06-07T05:37:41.069Z,13.61
2019-06-07T05:40:09.733Z,13.73
2019-06-07T05:42:43.158Z,14.01
2019-06-07T05:45:09.575Z,14.50
2019-06-07T05:47:44.368Z,14.75
2019-06-07T05:50:38.050Z,14.93
2019-06-07T05:52:44.341Z,15.32
2019-06-07T05:55:15.029Z,15.97
2019-06-07T05:57:49.184Z,16.71
2019-06-07T06:00:14.723Z,17.49
2019-06-07T06:03:03.634Z,18.22
2019-06-07T06:05:33.849Z,18.76
2019-06-07T06:07:54.149Z,19.22
2019-06-07T06:10:23.241Z,19.61
2019-06-07T06:12:52.346Z,19.96
2019-06-07T06:15:41.710Z,20.25
2019-06-07T06:17:57.491Z,20.43
2019-06-07T06:20:32.857Z,20.54
2019-06-07T06:23:01.258Z,20.56
2019-06-07T06:25:32.999Z,20.59
2019-06-07T06:28:11.628Z,20.64
2019-06-07T06:30:31.752Z,20.62
2019-06-07T06:33:07.089Z,20.43
2019-06-07T06:35:36.006Z,20.08
2019-06-07T06:38:05.178Z,19.88
2019-06-07T06:40:43.295Z,19.65
2019-06-07T06:43:20.393Z,19.38
2019-06-07T06:45:50.618Z,19.11
2019-06-07T06:48:19.784Z,18.85
2019-06-07T06:50:52.273Z,18.80
2019-06-07T06:53:19.552Z,18.75
2019-06-07T06:55:51.171Z,18.74
2019-06-07T06:58:19.701Z,18.73
2019-06-07T07:01:04.845Z,18.75
2019-06-07T07:05:54.994Z,18.69
2019-06-07T07:08:26.432Z,18.70
2019-06-07T07:10:55.787Z,18.73
2019-06-07T07:13:25.386Z,18.70
2019-06-07T07:15:58.117Z,18.74
2019-06-07T07:18:26.803Z,18.82
2019-06-07T07:21:06.067Z,18.84
2019-06-07T07:23:35.006Z,18.91
2019-06-07T07:26:04.480Z,19.03
2019-06-07T07:28:33.653Z,19.13
2019-06-07T07:31:02.619Z,19.19
2019-06-07T07:34:20.687Z,19.31
2019-06-07T07:36:19.023Z,19.30
2019-06-07T07:38:33.291Z,19.37
2019-06-07T07:41:14.029Z,19.44
2019-06-07T07:43:32.983Z,19.66
2019-06-07T07:46:03.279Z,19.62
2019-06-07T07:48:32.672Z,19.66
2019-06-07T07:51:03.318Z,19.77
2019-06-07T07:53:47.572Z,19.79
2019-06-07T07:56:03.257Z,19.87
2019-06-07T07:58:32.277Z,19.84
2019-06-07T08:01:10.325Z,19.91
2019-06-07T08:03:32.016Z,20.00
2019-06-07T08:06:01.189Z,20.07
2019-06-07T08:08:30.226Z,20.04
2019-06-07T08:11:02.131Z,20.13
2019-06-07T08:13:30.034Z,20.13
2019-06-07T08:16:06.225Z,20.22
2019-06-07T08:18:30.133Z,20.28
2019-06-07T08:21:15.055Z,20.37
2019-06-07T08:23:30.019Z,20.47
2019-06-07T08:26:01.139Z,20.45
2019-06-07T08:28:29.705Z,20.51
2019-06-07T08:31:06.547Z,20.57
2019-06-07T08:33:29.739Z,20.63
2019-06-07T08:36:19.303Z,20.75
2019-06-07T08:38:47.168Z,20.90
2019-06-07T08:41:10.919Z,21.02
2019-06-07T08:43:33.171Z,21.11
2019-06-07T08:46:07.269Z,21.20
2019-06-07T08:48:36.786Z,21.22
2019-06-07T08:51:08.170Z,21.29
2019-06-07T08:53:36.444Z,21.34
2019-06-07T08:56:10.139Z,21.33
2019-06-07T08:58:36.006Z,21.49
2019-06-07T09:01:08.467Z,21.57
2019-06-07T09:03:35.825Z,21.69
2019-06-07T09:06:16.341Z,21.77
2019-06-07T09:08:35.526Z,21.89
2019-06-07T09:11:11.310Z,21.93
2019-06-07T09:13:41.961Z,21.93
2019-06-07T09:16:15.118Z,21.91
2019-06-07T09:18:52.155Z,21.93
2019-06-07T09:21:21.528Z,22.08
2019-06-07T09:23:50.446Z,22.09
2019-06-07T09:26:19.460Z,22.23
2019-06-07T09:28:48.556Z,22.25
2019-06-07T09:31:17.562Z,22.37
2019-06-07T09:33:46.600Z,22.45
2019-06-07T09:36:15.645Z,22.49
2019-06-07T09:38:45.272Z,22.56
2019-06-07T09:41:14.182Z,22.63
2019-06-07T09:46:16.297Z,22.74
2019-06-07T09:49:12.165Z,22.84
2019-06-07T09:51:19.777Z,22.96
2019-06-07T09:53:46.079Z,22.96
2019-06-07T09:56:15.124Z,23.02
2019-06-07T09:58:53.614Z,23.02
2019-06-07T10:01:14.903Z,23.08
2019-06-07T10:03:43.945Z,23.13
2019-06-07T10:06:13.873Z,23.20
2019-06-07T10:11:16.297Z,23.31
2019-06-07T10:13:45.942Z,23.44
2019-06-07T10:16:14.914Z,23.53
2019-06-07T10:18:43.797Z,23.61
2019-06-07T10:21:15.012Z,23.69
2019-06-07T10:23:43.552Z,23.75
2019-06-07T10:26:12.478Z,23.82
2019-06-07T10:28:41.423Z,23.91
2019-06-07T10:31:15.549Z,23.95
2019-06-07T10:33:44.601Z,23.95
2019-06-07T10:36:13.699Z,23.97
2019-06-07T10:38:42.821Z,24.01
2019-06-07T10:41:11.807Z,24.12
2019-06-07T10:43:40.924Z,24.19
2019-06-07T10:46:10.056Z,24.21
2019-06-07T10:48:40.222Z,24.31
2019-06-07T10:51:11.443Z,24.38
2019-06-07T10:53:39.859Z,24.38
2019-06-07T10:56:09.076Z,24.48
2019-06-07T10:58:38.110Z,24.47
2019-06-07T11:01:07.388Z,24.55
2019-06-07T11:03:36.520Z,24.56
2019-06-07T11:06:05.772Z,24.63
2019-06-07T11:08:34.853Z,24.67
2019-06-07T11:11:03.895Z,24.75
2019-06-07T11:13:32.883Z,24.81
2019-06-07T11:16:01.835Z,24.80
2019-06-07T11:18:33.895Z,24.74
2019-06-07T11:21:02.889Z,24.78
2019-06-07T11:23:31.853Z,24.79
2019-06-07T11:26:12.366Z,24.78
2019-06-07T11:28:43.678Z,24.79
2019-06-07T11:31:13.358Z,24.88
2019-06-07T11:33:42.829Z,24.87
2019-06-07T11:36:12.817Z,24.96
2019-06-07T11:38:41.866Z,25.13
2019-06-07T11:41:11.591Z,25.10
2019-06-07T11:43:40.728Z,25.20
2019-06-07T11:46:10.927Z,25.25
2019-06-07T11:48:39.900Z,25.31
2019-06-07T11:51:08.910Z,25.36
2019-06-07T11:53:38.030Z,25.40
2019-06-07T11:56:07.874Z,25.48
2019-06-07T11:58:36.724Z,25.45
2019-06-07T12:01:14.960Z,25.51
2019-06-07T12:03:46.875Z,25.53
2019-06-07T12:06:16.423Z,25.49
2019-06-07T12:08:45.513Z,25.47
2019-06-07T12:11:14.477Z,25.51
2019-06-07T12:13:43.370Z,25.56
2019-06-07T12:16:13.289Z,25.62
2019-06-07T12:18:58.379Z,25.62
2019-06-07T12:21:30.621Z,25.67
2019-06-07T12:23:59.893Z,25.75
2019-06-07T12:26:32.195Z,25.78
2019-06-07T12:29:01.205Z,25.82
2019-06-07T12:31:30.180Z,25.92
2019-06-07T12:33:59.193Z,25.95
2019-06-07T12:36:28.011Z,25.97
2019-06-07T12:38:56.990Z,25.99
2019-06-07T12:41:25.895Z,26.07
2019-06-07T12:43:54.825Z,26.15
2019-06-07T12:46:28.076Z,26.14
2019-06-07T12:48:56.010Z,26.21
2019-06-07T12:51:25.045Z,26.20
2019-06-07T12:53:53.954Z,26.15
2019-06-07T12:56:24.228Z,26.23
2019-06-07T12:58:53.414Z,26.26
2019-06-07T13:01:23.066Z,26.26
2019-06-07T13:03:53.020Z,26.35
2019-06-07T13:06:22.086Z,26.37
2019-06-07T13:08:50.910Z,26.41
2019-06-07T13:11:24.285Z,26.45
2019-06-07T13:13:50.572Z,26.51
2019-06-07T13:16:19.992Z,26.53
2019-06-07T13:18:50.034Z,26.54
2019-06-07T13:21:20.298Z,26.55
2019-06-07T13:23:49.184Z,26.56
2019-06-07T13:26:18.562Z,26.60
2019-06-07T13:28:47.810Z,26.57
2019-06-07T13:31:16.755Z,26.56
2019-06-07T13:33:45.709Z,26.62
2019-06-07T13:36:16.067Z,26.67
2019-06-07T13:38:46.958Z,26.67
2019-06-07T13:41:30.102Z,26.70
2019-06-07T13:43:46.683Z,26.70
2019-06-07T13:46:16.889Z,26.73
2019-06-07T13:48:45.984Z,26.75
2019-06-07T13:51:14.863Z,26.77
2019-06-07T13:53:43.987Z,26.86
2019-06-07T13:56:28.368Z,26.92
2019-06-07T13:59:03.765Z,26.95
2019-06-07T14:01:33.110Z,26.96
2019-06-07T14:04:02.179Z,26.97
2019-06-07T14:06:31.266Z,26.97
2019-06-07T14:09:08.616Z,26.96
2019-06-07T14:11:49.837Z,26.97
2019-06-07T14:14:08.319Z,26.95
2019-06-07T14:16:37.273Z,27.02
2019-06-07T14:19:06.303Z,27.04
2019-06-07T14:21:35.422Z,27.08
2019-06-07T14:24:04.448Z,27.08
2019-06-07T14:26:33.545Z,27.16
2019-06-07T14:29:02.551Z,27.18
2019-06-07T14:31:32.235Z,27.18
2019-06-07T14:34:01.328Z,27.22
2019-06-07T14:36:31.059Z,27.22
2019-06-07T14:39:00.137Z,27.27
2019-06-07T14:41:29.532Z,27.25
2019-06-07T14:43:58.551Z,27.22
2019-06-07T14:46:28.180Z,27.17
2019-06-07T14:48:57.226Z,27.17
2019-06-07T14:51:26.426Z,27.14
2019-06-07T14:53:55.398Z,27.14
2019-06-07T14:56:24.863Z,27.17
2019-06-07T14:58:55.736Z,27.19
2019-06-07T15:01:26.160Z,27.27
2019-06-07T15:03:57.390Z,27.30
2019-06-07T15:06:26.855Z,27.35
2019-06-07T15:08:56.069Z,27.35
2019-06-07T15:11:25.010Z,27.40
2019-06-07T15:13:56.087Z,27.44
2019-06-07T15:16:29.997Z,27.49
2019-06-07T15:18:58.831Z,27.49
2019-06-07T15:21:28.674Z,27.36
2019-06-07T15:23:57.843Z,27.47
2019-06-07T15:26:28.342Z,27.44
2019-06-07T15:28:58.135Z,27.50
2019-06-07T15:31:34.651Z,27.50
2019-06-07T15:34:04.278Z,27.50
2019-06-07T15:36:34.428Z,27.50
2019-06-07T15:39:06.887Z,27.58
2019-06-07T15:41:35.085Z,27.58
2019-06-07T15:44:08.267Z,27.61
2019-06-07T15:46:37.947Z,27.62
2019-06-07T15:49:07.046Z,27.66
2019-06-07T15:51:36.719Z,27.66
2019-06-07T15:54:05.897Z,27.61
2019-06-07T15:56:34.964Z,27.61
2019-06-07T15:59:04.064Z,27.59
2019-06-07T16:01:33.596Z,27.58
2019-06-07T16:04:02.878Z,27.56
2019-06-07T16:06:32.153Z,27.48
2019-06-07T16:09:01.306Z,27.55
2019-06-07T16:11:30.729Z,27.55
2019-06-07T16:13:59.917Z,27.57
2019-06-07T16:16:29.129Z,27.57
2019-06-07T16:18:58.043Z,27.54
2019-06-07T16:21:27.365Z,27.47
2019-06-07T16:23:56.372Z,27.53
2019-06-07T16:26:25.591Z,27.52
2019-06-07T16:28:57.264Z,27.51
2019-06-07T16:31:25.378Z,27.49
2019-06-07T16:33:54.376Z,27.49
2019-06-07T16:36:23.246Z,27.47
2019-06-07T16:38:52.063Z,27.39
2019-06-07T16:41:21.030Z,27.40
2019-06-07T16:43:50.025Z,27.32
2019-06-07T16:46:19.037Z,27.28
2019-06-07T16:48:49.078Z,27.16
2019-06-07T16:51:18.065Z,27.13
2019-06-07T16:53:46.994Z,27.04
2019-06-07T16:56:16.050Z,27.04
2019-06-07T16:58:46.430Z,27.01
2019-06-07T17:01:15.378Z,26.91
2019-06-07T17:03:47.642Z,26.88
2019-06-07T17:06:16.713Z,26.85
2019-06-07T17:08:46.247Z,26.82
2019-06-07T17:11:15.447Z,26.77
2019-06-07T17:13:44.519Z,26.72
2019-06-07T17:16:13.500Z,26.65
2019-06-07T17:18:43.022Z,26.63
2019-06-07T17:21:12.059Z,26.61
2019-06-07T17:23:49.440Z,26.57
2019-06-07T17:26:27.769Z,26.54
2019-06-07T17:28:59.728Z,26.49
2019-06-07T17:31:28.708Z,26.46
2019-06-07T17:33:57.653Z,26.41
2019-06-07T17:36:26.608Z,26.37
2019-06-07T17:38:55.533Z,26.34
2019-06-07T17:41:24.502Z,26.28
2019-06-07T17:44:00.022Z,26.21
2019-06-07T17:46:23.961Z,26.15
2019-06-07T17:48:54.988Z,26.09
2019-06-07T17:51:23.927Z,26.04
2019-06-07T17:53:52.813Z,25.98
2019-06-07T17:56:21.782Z,25.94
2019-06-07T17:58:50.865Z,25.88
2019-06-07T18:01:20.960Z,25.83
2019-06-07T18:03:51.154Z,25.77
2019-06-07T18:06:20.351Z,25.70
2019-06-07T18:08:49.958Z,25.64
2019-06-07T18:11:18.747Z,25.57
2019-06-07T18:13:48.264Z,25.49
2019-06-07T18:16:20.433Z,25.40
2019-06-07T18:18:50.618Z,25.32
2019-06-07T18:21:19.780Z,25.25
2019-06-07T18:23:50.270Z,25.18
2019-06-07T18:26:21.403Z,25.13
2019-06-07T18:28:50.582Z,25.05
2019-06-07T18:31:19.431Z,24.95
2019-06-07T18:33:48.754Z,24.90
2019-06-07T18:36:17.730Z,24.84
2019-06-07T18:38:46.906Z,24.80
2019-06-07T18:41:15.954Z,24.74
2019-06-07T18:43:44.801Z,24.65
2019-06-07T18:46:13.677Z,24.55
2019-06-07T18:48:42.509Z,24.47
2019-06-07T18:51:12.743Z,24.39
2019-06-07T18:53:41.722Z,24.29
2019-06-07T18:56:10.779Z,24.19
2019-06-07T18:58:39.680Z,24.09
2019-06-07T19:01:08.637Z,23.97
2019-06-07T19:03:37.651Z,23.84
2019-06-07T19:06:06.900Z,23.70
2019-06-07T19:08:35.838Z,23.57
2019-06-07T19:11:04.849Z,23.43
2019-06-07T19:13:33.744Z,23.31
2019-06-07T19:16:15.761Z,23.16
2019-06-07T19:18:44.639Z,23.03
2019-06-07T19:21:14.633Z,22.89
2019-06-07T19:23:43.622Z,22.79
2019-06-07T19:26:12.776Z,22.71
2019-06-07T19:28:41.823Z,22.64
2019-06-07T19:31:10.723Z,22.57
2019-06-07T19:33:48.739Z,22.46
2019-06-07T19:36:10.245Z,22.37
2019-06-07T19:38:40.201Z,22.26
2019-06-07T19:41:19.191Z,22.14
2019-06-07T19:43:39.725Z,22.03
2019-06-07T19:46:08.570Z,21.90
2019-06-07T19:48:37.454Z,21.78
2019-06-07T19:51:08.511Z,21.69
2019-06-07T19:53:37.552Z,21.58
2019-06-07T19:56:08.722Z,21.48
2019-06-07T19:58:37.842Z,21.37
2019-06-07T20:01:10.970Z,21.29
2019-06-07T20:03:49.425Z,21.18
2019-06-07T20:06:16.655Z,21.08
2019-06-07T20:08:45.521Z,20.98
2019-06-07T20:11:14.536Z,20.90
2019-06-07T20:13:49.376Z,20.83
2019-06-07T20:16:18.499Z,20.76
2019-06-07T20:18:47.563Z,20.69
2019-06-07T20:21:16.543Z,20.59
2019-06-07T20:23:51.510Z,20.54
2019-06-07T20:26:22.562Z,20.49
2019-06-07T20:28:51.547Z,20.43
2019-06-07T20:31:26.436Z,20.37
2019-06-07T20:33:58.635Z,20.32
2019-06-07T20:36:27.822Z,20.25
2019-06-07T20:39:04.038Z,20.21
2019-06-07T20:41:35.125Z,20.17
2019-06-07T20:44:05.791Z,20.14
2019-06-07T20:46:34.878Z,20.10
2019-06-07T20:49:09.626Z,20.07
2019-06-07T20:51:41.075Z,20.03
2019-06-07T20:54:16.394Z,19.98
2019-06-07T20:56:46.429Z,19.95
2019-06-07T20:59:24.220Z,19.91
2019-06-07T21:01:53.292Z,19.88
2019-06-07T21:04:27.518Z,19.83
2019-06-07T21:06:59.191Z,19.78
2019-06-07T21:09:29.302Z,19.71
2019-06-07T21:12:03.741Z,19.68
2019-06-07T21:14:38.592Z,19.61
2019-06-07T21:17:08.228Z,19.57
2019-06-07T21:19:38.292Z,19.53
2019-06-07T21:22:08.846Z,19.49
2019-06-07T21:24:37.854Z,19.54
2019-06-07T21:27:07.367Z,19.54
2019-06-07T21:29:42.899Z,19.59
2019-06-07T21:32:12.299Z,19.66
2019-06-07T21:34:43.567Z,19.78
2019-06-07T21:37:20.572Z,19.83
2019-06-07T21:39:50.057Z,19.99
2019-06-07T21:42:27.879Z,20.12
2019-06-07T21:44:57.689Z,20.22
2019-06-07T21:47:28.862Z,20.35
2019-06-07T21:49:58.955Z,20.39
2019-06-07T21:52:29.082Z,20.36
2019-06-07T21:54:59.756Z,20.21
2019-06-07T21:57:28.697Z,20.02
2019-06-07T21:59:57.774Z,19.77
2019-06-07T22:02:26.616Z,19.52
2019-06-07T22:04:55.499Z,19.36
2019-06-07T22:07:24.631Z,19.09
2019-06-07T22:09:53.563Z,18.88
2019-06-07T22:12:22.485Z,18.74
2019-06-07T22:14:51.396Z,18.52
2019-06-07T22:17:20.318Z,18.37
2019-06-07T22:19:49.330Z,18.18
2019-06-07T22:22:18.237Z,18.05
2019-06-07T22:24:47.063Z,17.88
2019-06-07T22:27:15.979Z,17.75
2019-06-07T22:29:44.885Z,17.68
2019-06-07T22:32:14.990Z,17.60
2019-06-07T22:34:43.828Z,17.55
2019-06-07T22:37:15.825Z,17.51
2019-06-07T22:39:43.198Z,17.49
2019-06-07T22:42:13.484Z,17.42
2019-06-07T22:44:42.387Z,17.37
2019-06-07T22:47:12.048Z,17.36
2019-06-07T22:49:40.920Z,17.35
2019-06-07T22:52:12.562Z,17.30
2019-06-07T22:54:40.461Z,17.25
2019-06-07T22:57:16.678Z,17.22
2019-06-07T22:59:45.716Z,17.19
2019-06-07T23:02:14.689Z,17.17
2019-06-07T23:04:43.674Z,17.16
2019-06-07T23:07:12.946Z,17.11
2019-06-07T23:09:42.043Z,17.08
2019-06-07T23:12:11.193Z,17.02
2019-06-07T23:14:40.377Z,16.98
2019-06-07T23:17:09.517Z,16.95
2019-06-07T23:19:38.369Z,16.96
2019-06-07T23:22:07.305Z,16.94
2019-06-07T23:24:36.232Z,16.90
2019-06-07T23:27:05.128Z,16.89
2019-06-07T23:29:34.002Z,16.87
2019-06-07T23:32:02.925Z,16.86
2019-06-07T23:34:31.745Z,16.85
2019-06-07T23:37:00.577Z,16.81
2019-06-07T23:39:29.421Z,16.82
2019-06-07T23:41:58.305Z,16.79
2019-06-07T23:44:27.165Z,16.80
2019-06-07T23:47:10.397Z,16.78
2019-06-07T23:49:26.531Z,16.78
2019-06-07T23:51:55.283Z,16.74
2019-06-07T23:54:24.114Z,16.72
2019-06-07T23:56:52.949Z,16.70
2019-06-07T23:59:22.397Z,16.64
